sensor_id;sensor_type;location;lat;lon;timestamp;pressure;altitude;pressure_sealevel;temperature;humidity
19795;BME280;10057;59.402;17.866;2023-03-24T00:01:54;99223.81;;;7.11;70.33
19795;BME280;10057;59.402;17.866;2023-03-24T00:04:22;99230.94;;;7.09;70.41
19795;BME280;10057;59.402;17.866;2023-03-24T00:06:50;99222.22;;;7.07;70.31
19795;BME280;10057;59.402;17.866;2023-03-24T00:09:18;99235.41;;;7.07;70.09
19795;BME280;10057;59.402;17.866;2023-03-24T00:11:45;99229.22;;;7.08;70.62
19795;BME280;10057;59.402;17.866;2023-03-24T00:14:11;99224.66;;;7.12;70.25
19795;BME280;10057;59.402;17.866;2023-03-24T00:16:40;99228.94;;;7.15;70.22
19795;BME280;10057;59.402;17.866;2023-03-24T00:19:11;99229.66;;;7.18;70.15
19795;BME280;10057;59.402;17.866;2023-03-24T00:21:42;99233.19;;;7.17;69.94
19795;BME280;10057;59.402;17.866;2023-03-24T00:24:10;99241.91;;;7.19;70.36
19795;BME280;10057;59.402;17.866;2023-03-24T00:26:39;99247.19;;;7.19;70.20
19795;BME280;10057;59.402;17.866;2023-03-24T00:29:08;99244.59;;;7.18;69.73
19795;BME280;10057;59.402;17.866;2023-03-24T00:31:36;99241.06;;;7.19;69.97
19795;BME280;10057;59.402;17.866;2023-03-24T00:34:07;99245.63;;;7.15;69.98
19795;BME280;10057;59.402;17.866;2023-03-24T00:36:34;99254.66;;;7.09;70.27
19795;BME280;10057;59.402;17.866;2023-03-24T00:39:03;99253.16;;;7.04;70.67
19795;BME280;10057;59.402;17.866;2023-03-24T00:41:31;99255.94;;;7.01;70.49
19795;BME280;10057;59.402;17.866;2023-03-24T00:43:59;99249.03;;;6.98;70.72
19795;BME280;10057;59.402;17.866;2023-03-24T00:46:28;99255.31;;;6.96;70.44
19795;BME280;10057;59.402;17.866;2023-03-24T00:49:01;99255.38;;;6.94;70.51
19795;BME280;10057;59.402;17.866;2023-03-24T00:51:34;99254.44;;;6.95;70.88
19795;BME280;10057;59.402;17.866;2023-03-24T00:54:01;99268.56;;;6.94;71.05
19795;BME280;10057;59.402;17.866;2023-03-24T00:56:31;99254.50;;;6.94;71.07
19795;BME280;10057;59.402;17.866;2023-03-24T00:58:58;99261.38;;;6.98;71.23
19795;BME280;10057;59.402;17.866;2023-03-24T01:01:29;99256.94;;;6.98;70.96
19795;BME280;10057;59.402;17.866;2023-03-24T01:03:59;99254.22;;;7.00;70.56
19795;BME280;10057;59.402;17.866;2023-03-24T01:06:27;99257.72;;;7.00;70.83
19795;BME280;10057;59.402;17.866;2023-03-24T01:08:53;99257.72;;;7.00;70.88
19795;BME280;10057;59.402;17.866;2023-03-24T01:11:21;99257.81;;;6.99;71.07
19795;BME280;10057;59.402;17.866;2023-03-24T01:13:50;99251.81;;;6.95;71.02
19795;BME280;10057;59.402;17.866;2023-03-24T01:16:17;99249.94;;;6.97;70.80
19795;BME280;10057;59.402;17.866;2023-03-24T01:18:44;99248.97;;;7.00;70.80
19795;BME280;10057;59.402;17.866;2023-03-24T01:21:11;99248.03;;;7.01;71.48
19795;BME280;10057;59.402;17.866;2023-03-24T01:23:38;99247.03;;;7.03;71.03
19795;BME280;10057;59.402;17.866;2023-03-24T01:26:09;99243.63;;;7.01;70.97
19795;BME280;10057;59.402;17.866;2023-03-24T01:28:38;99247.13;;;7.02;71.04
19795;BME280;10057;59.402;17.866;2023-03-24T01:31:09;99234.78;;;7.02;71.26
19795;BME280;10057;59.402;17.866;2023-03-24T01:33:37;99229.50;;;7.02;71.21
19795;BME280;10057;59.402;17.866;2023-03-24T01:36:05;99225.94;;;7.03;71.34
19795;BME280;10057;59.402;17.866;2023-03-24T01:38:33;99231.06;;;7.06;71.24
19795;BME280;10057;59.402;17.866;2023-03-24T01:40:59;99231.78;;;7.10;70.91
19795;BME280;10057;59.402;17.866;2023-03-24T01:43:28;99230.84;;;7.11;70.84
19795;BME280;10057;59.402;17.866;2023-03-24T01:46:07;99230.00;;;7.10;70.77
19795;BME280;10057;59.402;17.866;2023-03-24T01:54:02;99223.81;;;7.11;70.89
19795;BME280;10057;59.402;17.866;2023-03-24T01:56:34;99229.94;;;7.12;70.62
19795;BME280;10057;59.402;17.866;2023-03-24T01:59:05;99230.78;;;7.12;70.84
19795;BME280;10057;59.402;17.866;2023-03-24T02:01:33;99233.47;;;7.11;71.16
19795;BME280;10057;59.402;17.866;2023-03-24T02:04:02;99232.63;;;7.10;71.09
19795;BME280;10057;59.402;17.866;2023-03-24T02:06:37;99234.38;;;7.11;70.72
19795;BME280;10057;59.402;17.866;2023-03-24T02:09:07;99236.19;;;7.09;71.21
19795;BME280;10057;59.402;17.866;2023-03-24T02:11:35;99228.22;;;7.11;71.00
19795;BME280;10057;59.402;17.866;2023-03-24T02:14:04;99223.81;;;7.11;71.21
19795;BME280;10057;59.402;17.866;2023-03-24T02:16:56;99219.44;;;7.10;71.03
19795;BME280;10057;59.402;17.866;2023-03-24T02:19:54;99209.03;;;7.07;70.94
19795;BME280;10057;59.402;17.866;2023-03-24T02:30:57;99190.94;;;7.00;71.02
19795;BME280;10057;59.402;17.866;2023-03-24T02:46:51;99200.72;;;6.79;71.53
19795;BME280;10057;59.402;17.866;2023-03-24T02:54:48;99206.25;;;6.73;71.34
19795;BME280;10057;59.402;17.866;2023-03-24T02:57:33;99207.28;;;6.70;71.61
19795;BME280;10057;59.402;17.866;2023-03-24T03:00:08;99202.06;;;6.69;71.91
19795;BME280;10057;59.402;17.866;2023-03-24T03:03:15;99203.75;;;6.70;71.57
19795;BME280;10057;59.402;17.866;2023-03-24T03:06:02;99207.19;;;6.72;72.02
19795;BME280;10057;59.402;17.866;2023-03-24T03:08:33;99204.56;;;6.72;71.72
19795;BME280;10057;59.402;17.866;2023-03-24T03:11:04;99201.94;;;6.72;71.53
19795;BME280;10057;59.402;17.866;2023-03-24T03:14:00;99199.28;;;6.72;72.02
19795;BME280;10057;59.402;17.866;2023-03-24T03:16:36;99205.41;;;6.72;71.63
19795;BME280;10057;59.402;17.866;2023-03-24T03:19:11;99208.13;;;6.71;71.53
19795;BME280;10057;59.402;17.866;2023-03-24T03:21:41;99206.41;;;6.70;71.48
19795;BME280;10057;59.402;17.866;2023-03-24T03:24:13;99211.66;;;6.70;72.00
19795;BME280;10057;59.402;17.866;2023-03-24T03:26:42;99212.56;;;6.70;71.92
19795;BME280;10057;59.402;17.866;2023-03-24T03:29:14;99220.38;;;6.72;72.02
19795;BME280;10057;59.402;17.866;2023-03-24T03:31:48;99213.25;;;6.74;71.91
19795;BME280;10057;59.402;17.866;2023-03-24T03:34:24;99220.22;;;6.75;72.11
19795;BME280;10057;59.402;17.866;2023-03-24T03:39:48;99218.59;;;6.72;72.32
19795;BME280;10057;59.402;17.866;2023-03-24T03:42:16;99226.50;;;6.72;71.99
19795;BME280;10057;59.402;17.866;2023-03-24T03:44:44;99226.44;;;6.74;72.22
19795;BME280;10057;59.402;17.866;2023-03-24T03:47:12;99215.03;;;6.73;72.65
19795;BME280;10057;59.402;17.866;2023-03-24T03:49:41;99223.00;;;6.72;72.36
19795;BME280;10057;59.402;17.866;2023-03-24T03:52:08;99222.34;;;6.67;72.44
19795;BME280;10057;59.402;17.866;2023-03-24T03:54:36;99212.81;;;6.64;72.32
19795;BME280;10057;59.402;17.866;2023-03-24T03:57:04;99215.50;;;6.62;72.48
19795;BME280;10057;59.402;17.866;2023-03-24T03:59:33;99214.75;;;6.60;72.76
19795;BME280;10057;59.402;17.866;2023-03-24T04:08:17;99219.34;;;6.55;72.67
19795;BME280;10057;59.402;17.866;2023-03-24T04:11:44;99221.22;;;6.53;72.12
19795;BME280;10057;59.402;17.866;2023-03-24T04:19:39;99227.50;;;6.49;72.14
19795;BME280;10057;59.402;17.866;2023-03-24T04:22:23;99237.28;;;6.47;72.86
19795;BME280;10057;59.402;17.866;2023-03-24T04:24:54;99230.31;;;6.46;72.72
19795;BME280;10057;59.402;17.866;2023-03-24T04:27:44;99224.16;;;6.46;72.48
19795;BME280;10057;59.402;17.866;2023-03-24T04:32:51;99216.22;;;6.47;73.05
19795;BME280;10057;59.402;17.866;2023-03-24T04:38:12;99210.00;;;6.48;72.98
19795;BME280;10057;59.402;17.866;2023-03-24T04:40:45;99215.22;;;6.50;73.00
19795;BME280;10057;59.402;17.866;2023-03-24T04:43:17;99204.69;;;6.50;72.46
19795;BME280;10057;59.402;17.866;2023-03-24T04:45:45;99210.81;;;6.50;73.13
19795;BME280;10057;59.402;17.866;2023-03-24T04:48:17;99212.50;;;6.51;72.78
19795;BME280;10057;59.402;17.866;2023-03-24T04:50:54;99204.69;;;6.50;73.07
19795;BME280;10057;59.402;17.866;2023-03-24T04:53:22;99207.25;;;6.51;72.49
19795;BME280;10057;59.402;17.866;2023-03-24T04:58:20;99202.25;;;6.45;73.38
19795;BME280;10057;59.402;17.866;2023-03-24T05:00:47;99205.81;;;6.44;72.70
19795;BME280;10057;59.402;17.866;2023-03-24T05:03:16;99205.00;;;6.42;72.85
19795;BME280;10057;59.402;17.866;2023-03-24T05:05:45;99199.81;;;6.40;72.93
19795;BME280;10057;59.402;17.866;2023-03-24T05:08:14;99199.09;;;6.37;73.33
19795;BME280;10057;59.402;17.866;2023-03-24T05:10:42;99202.66;;;6.36;73.36
19795;BME280;10057;59.402;17.866;2023-03-24T05:13:09;99207.06;;;6.35;73.16
19795;BME280;10057;59.402;17.866;2023-03-24T05:15:36;99206.19;;;6.35;72.80
19795;BME280;10057;59.402;17.866;2023-03-24T05:18:03;99207.94;;;6.36;72.97
19795;BME280;10057;59.402;17.866;2023-03-24T05:20:31;99212.19;;;6.38;73.49
19795;BME280;10057;59.402;17.866;2023-03-24T05:22:58;99211.13;;;6.43;73.58
19795;BME280;10057;59.402;17.866;2023-03-24T05:25:24;99201.34;;;6.46;73.40
19795;BME280;10057;59.402;17.866;2023-03-24T05:27:51;99208.31;;;6.47;73.51
19795;BME280;10057;59.402;17.866;2023-03-24T05:30:18;99212.50;;;6.51;73.02
19795;BME280;10057;59.402;17.866;2023-03-24T05:32:45;99209.75;;;6.54;73.63
19795;BME280;10057;59.402;17.866;2023-03-24T05:35:13;99215.84;;;6.55;73.36
19795;BME280;10057;59.402;17.866;2023-03-24T05:37:39;99218.28;;;6.59;73.65
19795;BME280;10057;59.402;17.866;2023-03-24T05:40:07;99216.34;;;6.63;73.44
19795;BME280;10057;59.402;17.866;2023-03-24T05:42:33;99209.25;;;6.65;72.97
19795;BME280;10057;59.402;17.866;2023-03-24T05:45:01;99210.81;;;6.69;73.52
19795;BME280;10057;59.402;17.866;2023-03-24T05:47:28;99216.03;;;6.71;73.34
19795;BME280;10057;59.402;17.866;2023-03-24T05:49:55;99202.72;;;6.74;73.03
19795;BME280;10057;59.402;17.866;2023-03-24T05:52:22;99206.13;;;6.76;73.53
19795;BME280;10057;59.402;17.866;2023-03-24T05:54:48;99206.00;;;6.79;73.18
19795;BME280;10057;59.402;17.866;2023-03-24T05:57:18;99205.06;;;6.80;73.27
19795;BME280;10057;59.402;17.866;2023-03-24T05:59:46;99205.00;;;6.81;73.01
19795;BME280;10057;59.402;17.866;2023-03-24T06:02:13;99197.84;;;6.83;73.42
19795;BME280;10057;59.402;17.866;2023-03-24T06:04:40;99204.78;;;6.86;73.46
19795;BME280;10057;59.402;17.866;2023-03-24T06:07:12;99194.19;;;6.87;73.32
19795;BME280;10057;59.402;17.866;2023-03-24T06:09:39;99192.16;;;6.93;73.38
19795;BME280;10057;59.402;17.866;2023-03-24T06:12:08;99200.94;;;6.93;73.04
19795;BME280;10057;59.402;17.866;2023-03-24T06:14:35;99213.03;;;6.97;73.24
19795;BME280;10057;59.402;17.866;2023-03-24T06:17:01;99207.63;;;7.00;73.40
19795;BME280;10057;59.402;17.866;2023-03-24T06:19:28;99212.00;;;7.01;73.37
19795;BME280;10057;59.402;17.866;2023-03-24T06:21:56;99210.13;;;7.03;73.00
19795;BME280;10057;59.402;17.866;2023-03-24T06:24:28;99211.69;;;7.07;72.99
19795;BME280;10057;59.402;17.866;2023-03-24T06:26:55;99209.03;;;7.07;73.18
19795;BME280;10057;59.402;17.866;2023-03-24T06:29:28;99215.19;;;7.08;73.14
19795;BME280;10057;59.402;17.866;2023-03-24T06:31:56;99211.69;;;7.07;73.32
19795;BME280;10057;59.402;17.866;2023-03-24T06:34:23;99203.84;;;7.06;73.06
19795;BME280;10057;59.402;17.866;2023-03-24T06:36:51;99206.50;;;7.06;73.49
19795;BME280;10057;59.402;17.866;2023-03-24T06:39:18;99211.69;;;7.07;73.28
19795;BME280;10057;59.402;17.866;2023-03-24T06:41:44;99210.78;;;7.08;73.35
19795;BME280;10057;59.402;17.866;2023-03-24T06:44:11;99206.41;;;7.07;73.36
19795;BME280;10057;59.402;17.866;2023-03-24T06:46:38;99202.00;;;7.08;72.98
19795;BME280;10057;59.402;17.866;2023-03-24T06:49:06;99207.19;;;7.09;72.91
19795;BME280;10057;59.402;17.866;2023-03-24T06:51:33;99203.56;;;7.12;73.28
19795;BME280;10057;59.402;17.866;2023-03-24T06:53:59;99195.66;;;7.12;73.29
19795;BME280;10057;59.402;17.866;2023-03-24T06:56:26;99199.94;;;7.15;73.09
19795;BME280;10057;59.402;17.866;2023-03-24T06:58:53;99197.31;;;7.15;73.17
19795;BME280;10057;59.402;17.866;2023-03-24T07:01:20;99194.66;;;7.15;73.13
19795;BME280;10057;59.402;17.866;2023-03-24T07:03:47;99194.72;;;7.13;73.08
19795;BME280;10057;59.402;17.866;2023-03-24T07:06:15;99205.22;;;7.15;73.11
19795;BME280;10057;59.402;17.866;2023-03-24T07:08:43;99200.78;;;7.15;73.34
19795;BME280;10057;59.402;17.866;2023-03-24T07:11:11;99200.69;;;7.17;73.24
19795;BME280;10057;59.402;17.866;2023-03-24T07:13:37;99213.13;;;7.15;73.25
19795;BME280;10057;59.402;17.866;2023-03-24T07:16:05;99201.78;;;7.12;73.10
19795;BME280;10057;59.402;17.866;2023-03-24T07:18:32;99199.00;;;7.16;73.43
19795;BME280;10057;59.402;17.866;2023-03-24T07:20:59;99202.34;;;7.19;73.49
19795;BME280;10057;59.402;17.866;2023-03-24T07:23:25;99193.50;;;7.20;73.45
19795;BME280;10057;59.402;17.866;2023-03-24T07:25:53;99200.41;;;7.23;73.19
19795;BME280;10057;59.402;17.866;2023-03-24T07:28:20;99209.88;;;7.27;73.31
19795;BME280;10057;59.402;17.866;2023-03-24T07:30:47;99201.03;;;7.28;73.38
19795;BME280;10057;59.402;17.866;2023-03-24T07:33:14;99203.69;;;7.28;73.21
19795;BME280;10057;59.402;17.866;2023-03-24T07:35:41;99197.53;;;7.27;73.36
19795;BME280;10057;59.402;17.866;2023-03-24T07:38:08;99205.41;;;7.29;73.21
19795;BME280;10057;59.402;17.866;2023-03-24T07:40:35;99205.25;;;7.32;73.36
19795;BME280;10057;59.402;17.866;2023-03-24T07:43:04;99190.13;;;7.35;73.21
19795;BME280;10057;59.402;17.866;2023-03-24T07:45:33;99178.50;;;7.40;73.52
19795;BME280;10057;59.402;17.866;2023-03-24T07:48:00;99185.34;;;7.44;73.36
19795;BME280;10057;59.402;17.866;2023-03-24T07:50:28;99187.88;;;7.45;73.21
19795;BME280;10057;59.402;17.866;2023-03-24T07:52:55;99195.75;;;7.47;73.44
19795;BME280;10057;59.402;17.866;2023-03-24T07:55:25;99194.75;;;7.49;73.13
19795;BME280;10057;59.402;17.866;2023-03-24T07:57:55;99199.06;;;7.50;73.06
19795;BME280;10057;59.402;17.866;2023-03-24T08:00:22;99195.50;;;7.51;73.04
19795;BME280;10057;59.402;17.866;2023-03-24T08:02:51;99189.47;;;7.49;72.75
19795;BME280;10057;59.402;17.866;2023-03-24T08:05:21;99192.88;;;7.51;73.09
19795;BME280;10057;59.402;17.866;2023-03-24T08:07:50;99192.72;;;7.54;72.74
19795;BME280;10057;59.402;17.866;2023-03-24T08:10:23;99189.00;;;7.58;72.80
19795;BME280;10057;59.402;17.866;2023-03-24T08:12:51;99195.75;;;7.64;73.03
19795;BME280;10057;59.402;17.866;2023-03-24T08:15:18;99187.75;;;7.66;72.86
19795;BME280;10057;59.402;17.866;2023-03-24T08:17:47;99186.84;;;7.67;72.72
19795;BME280;10057;59.402;17.866;2023-03-24T08:20:14;99179.69;;;7.69;72.78
19795;BME280;10057;59.402;17.866;2023-03-24T08:22:42;99186.53;;;7.73;72.74
19795;BME280;10057;59.402;17.866;2023-03-24T08:25:10;99168.63;;;7.79;72.76
19795;BME280;10057;59.402;17.866;2023-03-24T08:27:38;99171.00;;;7.84;73.10
19795;BME280;10057;59.402;17.866;2023-03-24T08:30:07;99172.72;;;7.85;72.55
19795;BME280;10057;59.402;17.866;2023-03-24T08:32:36;99176.97;;;7.88;72.52
19795;BME280;10057;59.402;17.866;2023-03-24T08:35:03;99176.91;;;7.89;72.58
19795;BME280;10057;59.402;17.866;2023-03-24T08:37:30;99182.88;;;7.93;72.82
19795;BME280;10057;59.402;17.866;2023-03-24T08:39:57;99181.88;;;7.95;72.59
19795;BME280;10057;59.402;17.866;2023-03-24T08:42:24;99171.25;;;7.97;72.46
19795;BME280;10057;59.402;17.866;2023-03-24T08:44:51;99173.53;;;8.03;72.57
19795;BME280;10057;59.402;17.866;2023-03-24T08:47:18;99174.25;;;8.06;72.85
19795;BME280;10057;59.402;17.866;2023-03-24T08:49:45;99173.19;;;8.11;72.67
19795;BME280;10057;59.402;17.866;2023-03-24T08:52:11;99170.28;;;8.15;72.22
19795;BME280;10057;59.402;17.866;2023-03-24T08:54:38;99176.94;;;8.22;72.32
19795;BME280;10057;59.402;17.866;2023-03-24T08:57:05;99174.06;;;8.27;72.03
19795;BME280;10057;59.402;17.866;2023-03-24T08:59:32;99167.59;;;8.32;72.40
19795;BME280;10057;59.402;17.866;2023-03-24T09:01:58;99168.31;;;8.36;71.94
19795;BME280;10057;59.402;17.866;2023-03-24T09:04:25;99166.47;;;8.38;71.99
19795;BME280;10057;59.402;17.866;2023-03-24T09:06:52;99162.03;;;8.39;71.61
19795;BME280;10057;59.402;17.866;2023-03-24T09:09:29;99164.81;;;8.36;71.74
19795;BME280;10057;59.402;17.866;2023-03-24T09:11:55;99160.38;;;8.36;71.94
19795;BME280;10057;59.402;17.866;2023-03-24T09:14:22;99151.47;;;8.39;71.85
19795;BME280;10057;59.402;17.866;2023-03-24T09:16:49;99147.03;;;8.39;71.54
19795;BME280;10057;59.402;17.866;2023-03-24T09:19:17;99149.56;;;8.41;71.45
19795;BME280;10057;59.402;17.866;2023-03-24T09:21:45;99143.44;;;8.40;71.64
19795;BME280;10057;59.402;17.866;2023-03-24T09:24:13;99128.63;;;8.38;71.35
19795;BME280;10057;59.402;17.866;2023-03-24T09:26:40;99122.59;;;8.34;71.90
19795;BME280;10057;59.402;17.866;2023-03-24T09:29:07;99123.34;;;8.38;71.82
19795;BME280;10057;59.402;17.866;2023-03-24T09:31:33;99116.19;;;8.40;71.68
19795;BME280;10057;59.402;17.866;2023-03-24T09:34:00;99117.97;;;8.39;71.63
19795;BME280;10057;59.402;17.866;2023-03-24T09:36:29;99111.13;;;8.35;71.60
19795;BME280;10057;59.402;17.866;2023-03-24T09:38:56;99110.97;;;8.38;71.58
19795;BME280;10057;59.402;17.866;2023-03-24T09:41:28;99110.03;;;8.39;71.35
19795;BME280;10057;59.402;17.866;2023-03-24T09:44:14;99097.78;;;8.38;71.98
19795;BME280;10057;59.402;17.866;2023-03-24T09:47:16;99091.28;;;8.44;71.88
19795;BME280;10057;59.402;17.866;2023-03-24T09:49:41;99081.84;;;8.56;72.16
19795;BME280;10057;59.402;17.866;2023-03-24T09:52:11;99087.38;;;8.67;71.72
19795;BME280;10057;59.402;17.866;2023-03-24T09:54:53;99078.84;;;8.77;71.25
19795;BME280;10057;59.402;17.866;2023-03-24T09:59:58;99067.31;;;8.94;70.76
19795;BME280;10057;59.402;17.866;2023-03-24T10:02:27;99057.44;;;8.98;71.03
19795;BME280;10057;59.402;17.866;2023-03-24T10:04:55;99055.09;;;9.08;71.08
19795;BME280;10057;59.402;17.866;2023-03-24T10:07:39;99056.72;;;9.10;71.04
19795;BME280;10057;59.402;17.866;2023-03-24T10:10:19;99054.34;;;9.06;70.86
19795;BME280;10057;59.402;17.866;2023-03-24T10:12:49;99051.00;;;9.02;70.31
19795;BME280;10057;59.402;17.866;2023-03-24T10:15:38;99045.81;;;9.00;70.85
19795;BME280;10057;59.402;17.866;2023-03-24T10:20:54;99042.50;;;8.97;70.56
19795;BME280;10057;59.402;17.866;2023-03-24T10:23:28;99036.25;;;8.98;70.61
19795;BME280;10057;59.402;17.866;2023-03-24T10:26:08;99038.84;;;8.99;70.43
19795;BME280;10057;59.402;17.866;2023-03-24T10:28:44;99029.84;;;9.02;70.72
19795;BME280;10057;59.402;17.866;2023-03-24T10:31:18;99025.22;;;9.06;70.68
19795;BME280;10057;59.402;17.866;2023-03-24T10:33:46;99021.50;;;9.10;71.15
19795;BME280;10057;59.402;17.866;2023-03-24T10:36:18;99011.75;;;9.10;70.74
19795;BME280;10057;59.402;17.866;2023-03-24T10:38:46;99009.28;;;9.07;70.62
19795;BME280;10057;59.402;17.866;2023-03-24T10:41:22;99006.94;;;9.02;69.87
19795;BME280;10057;59.402;17.866;2023-03-24T10:43:50;99017.69;;;8.99;70.30
19795;BME280;10057;59.402;17.866;2023-03-24T10:46:20;98995.75;;;8.97;70.58
19795;BME280;10057;59.402;17.866;2023-03-24T10:48:50;98999.34;;;8.96;70.06
19795;BME280;10057;59.402;17.866;2023-03-24T10:51:21;98998.56;;;8.94;70.31
19795;BME280;10057;59.402;17.866;2023-03-24T10:54:10;98988.94;;;8.93;70.48
19795;BME280;10057;59.402;17.866;2023-03-24T10:56:40;98992.44;;;8.94;70.80
19795;BME280;10057;59.402;17.866;2023-03-24T11:02:18;98971.56;;;8.89;70.69
19795;BME280;10057;59.402;17.866;2023-03-24T11:04:58;98983.81;;;8.90;70.75
19795;BME280;10057;59.402;17.866;2023-03-24T11:07:40;98967.97;;;8.90;70.49
19795;BME280;10057;59.402;17.866;2023-03-24T11:12:42;98955.59;;;8.91;71.13
19795;BME280;10057;59.402;17.866;2023-03-24T11:15:26;98954.47;;;8.95;70.91
19795;BME280;10057;59.402;17.866;2023-03-24T11:18:15;98951.81;;;8.95;70.78
19795;BME280;10057;59.402;17.866;2023-03-24T11:20:45;98951.75;;;8.96;70.94
19795;BME280;10057;59.402;17.866;2023-03-24T11:25:43;98941.47;;;9.06;70.76
19795;BME280;10057;59.402;17.866;2023-03-24T11:28:19;98940.25;;;9.12;71.08
19795;BME280;10057;59.402;17.866;2023-03-24T11:30:48;98936.56;;;9.14;71.11
19795;BME280;10057;59.402;17.866;2023-03-24T11:33:27;98932.13;;;9.15;70.92
19795;BME280;10057;59.402;17.866;2023-03-24T11:36:51;98919.75;;;9.15;71.14
19795;BME280;10057;59.402;17.866;2023-03-24T11:39:13;98912.38;;;9.20;71.15
19795;BME280;10057;59.402;17.866;2023-03-24T11:41:43;98905.31;;;9.21;70.78
19795;BME280;10057;59.402;17.866;2023-03-24T11:44:22;98903.50;;;9.21;71.35
19795;BME280;10057;59.402;17.866;2023-03-24T11:46:56;98899.91;;;9.22;70.92
19795;BME280;10057;59.402;17.866;2023-03-24T11:49:35;98896.22;;;9.25;71.11
19795;BME280;10057;59.402;17.866;2023-03-24T11:52:11;98880.16;;;9.28;70.95
19795;BME280;10057;59.402;17.866;2023-03-24T11:54:41;98871.38;;;9.28;70.72
19795;BME280;10057;59.402;17.866;2023-03-24T11:57:12;98872.22;;;9.28;70.76
19795;BME280;10057;59.402;17.866;2023-03-24T11:59:56;98872.13;;;9.30;71.07
19795;BME280;10057;59.402;17.866;2023-03-24T12:02:53;98863.34;;;9.29;71.06
19795;BME280;10057;59.402;17.866;2023-03-24T12:05:46;98855.50;;;9.28;70.76
19795;BME280;10057;59.402;17.866;2023-03-24T12:11:50;98832.19;;;9.20;70.76
19795;BME280;10057;59.402;17.866;2023-03-24T12:17:22;98818.94;;;9.06;70.96
19795;BME280;10057;59.402;17.866;2023-03-24T12:27:57;98785.13;;;8.82;71.75
19795;BME280;10057;59.402;17.866;2023-03-24T12:33:53;98773.31;;;8.73;72.22
19795;BME280;10057;59.402;17.866;2023-03-24T12:36:30;98778.78;;;8.70;72.30
19795;BME280;10057;59.402;17.866;2023-03-24T12:39:10;98768.50;;;8.66;72.64
19795;BME280;10057;59.402;17.866;2023-03-24T12:42:26;98762.53;;;8.62;72.31
19795;BME280;10057;59.402;17.866;2023-03-24T12:53:19;98721.63;;;8.39;72.63
19795;BME280;10057;59.402;17.866;2023-03-24T12:56:02;98719.31;;;8.33;73.45
19795;BME280;10057;59.402;17.866;2023-03-24T12:58:37;98709.88;;;8.29;73.55
19795;BME280;10057;59.402;17.866;2023-03-24T13:01:28;98713.00;;;8.21;73.40
19795;BME280;10057;59.402;17.866;2023-03-24T13:04:07;98694.97;;;8.14;73.40
19795;BME280;10057;59.402;17.866;2023-03-24T13:06:40;98694.56;;;8.05;73.63
19795;BME280;10057;59.402;17.866;2023-03-24T13:14:45;98674.53;;;7.87;74.17
19795;BME280;10057;59.402;17.866;2023-03-24T13:17:20;98666.97;;;7.81;74.31
19795;BME280;10057;59.402;17.866;2023-03-24T13:19:50;98663.72;;;7.76;74.53
19795;BME280;10057;59.402;17.866;2023-03-24T13:22:19;98659.69;;;7.70;74.17
19795;BME280;10057;59.402;17.866;2023-03-24T13:24:46;98657.56;;;7.61;74.95
19795;BME280;10057;59.402;17.866;2023-03-24T13:27:23;98654.25;;;7.57;74.79
19795;BME280;10057;59.402;17.866;2023-03-24T13:32:50;98635.28;;;7.51;75.10
19795;BME280;10057;59.402;17.866;2023-03-24T13:38:40;98621.53;;;7.46;75.28
19795;BME280;10057;59.402;17.866;2023-03-24T13:41:23;98611.22;;;7.41;75.14
19795;BME280;10057;59.402;17.866;2023-03-24T13:44:01;98607.06;;;7.37;75.29
19795;BME280;10057;59.402;17.866;2023-03-24T13:46:29;98594.91;;;7.34;75.54
19795;BME280;10057;59.402;17.866;2023-03-24T13:48:57;98584.47;;;7.33;75.74
19795;BME280;10057;59.402;17.866;2023-03-24T13:51:35;98563.19;;;7.36;75.92
19795;BME280;10057;59.402;17.866;2023-03-24T13:56:46;98548.19;;;7.36;75.83
19795;BME280;10057;59.402;17.866;2023-03-24T13:59:24;98534.25;;;7.34;75.65
19795;BME280;10057;59.402;17.866;2023-03-24T14:11:10;98486.50;;;7.25;76.18
19795;BME280;10057;59.402;17.866;2023-03-24T14:13:19;98473.47;;;7.22;76.36
19795;BME280;10057;59.402;17.866;2023-03-24T14:15:54;98480.63;;;7.20;76.22
19795;BME280;10057;59.402;17.866;2023-03-24T14:21:08;98449.94;;;7.19;76.65
19795;BME280;10057;59.402;17.866;2023-03-24T14:23:39;98439.38;;;7.19;76.76
19795;BME280;10057;59.402;17.866;2023-03-24T14:28:56;98414.69;;;7.20;76.29
19795;BME280;10057;59.402;17.866;2023-03-24T14:31:31;98397.84;;;7.22;76.89
19795;BME280;10057;59.402;17.866;2023-03-24T14:34:14;98383.66;;;7.25;76.78
19795;BME280;10057;59.402;17.866;2023-03-24T14:36:56;98371.97;;;7.29;76.81
19795;BME280;10057;59.402;17.866;2023-03-24T14:39:35;98371.13;;;7.28;77.17
19795;BME280;10057;59.402;17.866;2023-03-24T14:47:36;98339.25;;;7.31;77.20
19795;BME280;10057;59.402;17.866;2023-03-24T14:50:19;98341.81;;;7.33;77.30
19795;BME280;10057;59.402;17.866;2023-03-24T14:52:49;98355.06;;;7.31;77.82
19795;BME280;10057;59.402;17.866;2023-03-24T14:55:18;98332.41;;;7.29;77.17
19795;BME280;10057;59.402;17.866;2023-03-24T14:57:54;98337.75;;;7.27;77.45
19795;BME280;10057;59.402;17.866;2023-03-24T15:00:26;98338.88;;;7.23;77.00
19795;BME280;10057;59.402;17.866;2023-03-24T15:03:27;98327.69;;;7.20;77.18
19795;BME280;10057;59.402;17.866;2023-03-24T15:06:18;98322.78;;;7.13;77.35
19795;BME280;10057;59.402;17.866;2023-03-24T15:08:59;98312.41;;;7.10;77.31
19795;BME280;10057;59.402;17.866;2023-03-24T15:11:33;98288.22;;;7.04;77.73
19795;BME280;10057;59.402;17.866;2023-03-24T15:14:03;98279.66;;;7.00;77.60
19795;BME280;10057;59.402;17.866;2023-03-24T15:16:35;98279.94;;;6.96;77.91
19795;BME280;10057;59.402;17.866;2023-03-24T15:19:22;98267.81;;;6.93;77.96
19795;BME280;10057;59.402;17.866;2023-03-24T15:22:02;98265.34;;;6.90;77.90
19795;BME280;10057;59.402;17.866;2023-03-24T15:24:31;98261.88;;;6.89;77.62
19795;BME280;10057;59.402;17.866;2023-03-24T15:29:33;98245.41;;;6.86;78.05
19795;BME280;10057;59.402;17.866;2023-03-24T15:31:59;98244.66;;;6.84;78.05
19795;BME280;10057;59.402;17.866;2023-03-24T15:36:56;98231.88;;;6.78;78.57
19795;BME280;10057;59.402;17.866;2023-03-24T15:39:34;98219.72;;;6.75;78.37